createdAt,value
2022-09-06T00:00:08.867Z,11.89
2022-09-06T00:02:43.486Z,11.99
2022-09-06T00:05:13.087Z,12.02
2022-09-06T00:07:41.306Z,12.01
2022-09-06T00:10:10.360Z,11.99
2022-09-06T00:12:38.937Z,11.99
2022-09-06T00:15:08.215Z,11.99
2022-09-06T00:17:36.588Z,11.98
2022-09-06T00:20:09.147Z,11.95
2022-09-06T00:22:37.590Z,11.89
2022-09-06T00:25:07.054Z,11.83
2022-09-06T00:27:36.032Z,11.79
2022-09-06T00:30:05.691Z,11.76
2022-09-06T00:32:34.248Z,11.71
2022-09-06T00:35:02.411Z,11.82
2022-09-06T00:37:32.048Z,11.92
2022-09-06T00:40:00.409Z,11.88
2022-09-06T00:42:28.938Z,11.82
2022-09-06T00:44:57.356Z,11.75
2022-09-06T00:47:27.291Z,11.77
2022-09-06T00:49:59.118Z,11.73
2022-09-06T00:52:28.817Z,11.68
2022-09-06T00:54:58.718Z,11.64
2022-09-06T00:57:29.067Z,11.58
2022-09-06T00:59:57.537Z,11.52
2022-09-06T01:02:26.000Z,11.53
2022-09-06T01:04:55.107Z,11.49
2022-09-06T01:07:35.087Z,11.45
2022-09-06T01:10:21.577Z,11.39
2022-09-06T01:13:02.359Z,11.46
2022-09-06T01:15:41.241Z,11.42
2022-09-06T01:18:22.981Z,11.45
2022-09-06T01:21:04.167Z,11.56
2022-09-06T01:24:13.141Z,11.63
2022-09-06T01:27:07.417Z,11.57
2022-09-06T01:29:44.903Z,11.67
2022-09-06T01:32:21.897Z,11.84
2022-09-06T01:34:55.216Z,11.92
2022-09-06T01:37:24.768Z,12.03
2022-09-06T01:39:53.011Z,12.09
2022-09-06T01:42:26.756Z,12.13
2022-09-06T01:45:01.247Z,12.16
2022-09-06T01:47:39.895Z,12.19
2022-09-06T01:50:28.367Z,12.18
2022-09-06T01:53:09.293Z,12.18
2022-09-06T01:55:47.575Z,12.24
2022-09-06T01:58:33.397Z,12.28
2022-09-06T02:01:11.567Z,12.30
2022-09-06T02:03:47.537Z,12.33
2022-09-06T02:06:22.269Z,12.41
2022-09-06T02:08:55.278Z,12.45
2022-09-06T02:11:25.841Z,12.48
2022-09-06T02:13:57.117Z,12.51
2022-09-06T02:16:28.872Z,12.52
2022-09-06T02:19:04.158Z,12.52
2022-09-06T02:21:35.567Z,12.53
2022-09-06T02:24:11.336Z,12.52
2022-09-06T02:26:42.837Z,12.52
2022-09-06T02:29:11.827Z,12.54
2022-09-06T02:31:46.690Z,12.53
2022-09-06T02:34:18.001Z,12.51
2022-09-06T02:36:47.207Z,12.52
2022-09-06T02:39:15.337Z,12.54
2022-09-06T02:41:47.990Z,12.57
2022-09-06T02:44:16.875Z,12.58
2022-09-06T02:46:46.477Z,12.60
2022-09-06T02:49:14.705Z,12.60
2022-09-06T02:51:42.893Z,12.58
2022-09-06T02:54:11.367Z,12.59
2022-09-06T02:56:39.927Z,12.61
2022-09-06T02:59:08.337Z,12.58
2022-09-06T03:01:36.669Z,12.60
2022-09-06T03:04:06.428Z,12.58
2022-09-06T03:06:34.759Z,12.57
2022-09-06T03:09:03.037Z,12.58
2022-09-06T03:11:31.568Z,12.57
2022-09-06T03:13:59.827Z,12.54
2022-09-06T03:16:28.265Z,12.55
2022-09-06T03:18:56.358Z,12.54
2022-09-06T03:21:26.128Z,12.51
2022-09-06T03:23:54.828Z,12.51
2022-09-06T03:26:23.175Z,12.48
2022-09-06T03:28:51.369Z,12.47
2022-09-06T03:31:19.905Z,12.47
2022-09-06T03:33:48.983Z,12.44
2022-09-06T03:36:17.418Z,12.43
2022-09-06T03:38:46.947Z,12.43
2022-09-06T03:41:15.217Z,12.44
2022-09-06T03:43:43.417Z,12.43
2022-09-06T03:46:11.819Z,12.42
2022-09-06T03:48:40.077Z,12.41
2022-09-06T03:51:08.587Z,12.40
2022-09-06T03:53:36.697Z,12.41
2022-09-06T03:56:06.479Z,12.40
2022-09-06T03:58:35.027Z,12.40
2022-09-06T04:01:06.766Z,12.39
2022-09-06T04:03:36.067Z,12.38
2022-09-06T04:06:05.397Z,12.39
2022-09-06T04:08:34.036Z,12.37
2022-09-06T04:11:02.242Z,12.36
2022-09-06T04:13:33.537Z,12.36
2022-09-06T04:16:02.108Z,12.37
2022-09-06T04:18:30.639Z,12.38
2022-09-06T04:20:59.977Z,12.37
2022-09-06T04:23:30.011Z,12.38
2022-09-06T04:25:59.933Z,12.39
2022-09-06T04:28:28.943Z,12.39
2022-09-06T04:31:03.913Z,12.40
2022-09-06T04:33:34.325Z,12.37
2022-09-06T04:36:04.470Z,12.40
2022-09-06T04:38:37.026Z,12.42
2022-09-06T04:41:05.985Z,12.45
2022-09-06T04:43:34.319Z,12.50
2022-09-06T04:46:08.790Z,12.55
2022-09-06T04:48:37.178Z,12.59
2022-09-06T04:51:05.517Z,12.60
2022-09-06T04:53:33.818Z,12.62
2022-09-06T04:56:02.038Z,12.62
2022-09-06T04:58:30.286Z,12.62
2022-09-06T05:00:58.500Z,12.65
2022-09-06T05:03:28.137Z,12.64
2022-09-06T05:06:06.130Z,12.63
2022-09-06T05:08:34.447Z,12.65
2022-09-06T05:11:02.886Z,12.65
2022-09-06T05:13:31.396Z,12.66
2022-09-06T05:16:02.593Z,12.66
2022-09-06T05:18:32.351Z,12.66
2022-09-06T05:21:01.167Z,12.67
2022-09-06T05:23:30.107Z,12.70
2022-09-06T05:25:58.498Z,12.72
2022-09-06T05:28:26.740Z,12.76
2022-09-06T05:30:55.279Z,12.75
2022-09-06T05:33:25.207Z,12.75
2022-09-06T05:35:54.709Z,12.77
2022-09-06T05:38:24.002Z,12.80
2022-09-06T05:40:52.408Z,12.83
2022-09-06T05:43:20.516Z,12.83
2022-09-06T05:45:48.644Z,12.85
2022-09-06T05:48:17.198Z,12.89
2022-09-06T05:50:45.328Z,12.93
2022-09-06T05:53:14.816Z,12.96
2022-09-06T05:55:43.293Z,13.01
2022-09-06T05:58:11.797Z,13.07
2022-09-06T06:00:40.100Z,13.13
2022-09-06T06:03:08.379Z,13.21
2022-09-06T06:05:36.637Z,13.29
2022-09-06T06:08:04.955Z,13.34
2022-09-06T06:10:38.492Z,13.38
2022-09-06T06:13:07.060Z,13.40
2022-09-06T06:15:35.317Z,13.41
2022-09-06T06:18:03.627Z,13.40
2022-09-06T06:20:31.997Z,13.37
2022-09-06T06:23:00.340Z,13.34
2022-09-06T06:25:28.766Z,13.33
2022-09-06T06:27:58.199Z,13.33
2022-09-06T06:30:26.518Z,13.36
2022-09-06T06:33:13.297Z,13.36
2022-09-06T06:35:41.768Z,13.41
2022-09-06T06:38:09.927Z,13.43
2022-09-06T06:40:38.218Z,13.48
2022-09-06T06:43:10.837Z,13.53
2022-09-06T06:45:39.365Z,13.60
2022-09-06T06:48:07.617Z,13.65
2022-09-06T06:50:35.917Z,13.71
2022-09-06T06:53:04.007Z,13.72
2022-09-06T06:55:32.368Z,13.70
2022-09-06T06:58:01.006Z,13.69
2022-09-06T07:00:30.456Z,13.63
2022-09-06T07:03:00.034Z,13.66
2022-09-06T07:08:17.089Z,13.72
2022-09-06T07:10:45.421Z,13.73
2022-09-06T07:13:13.952Z,13.70
2022-09-06T07:15:43.468Z,13.68
2022-09-06T07:18:11.779Z,13.65
2022-09-06T07:26:18.166Z,13.73
2022-09-06T07:28:47.068Z,13.75
2022-09-06T07:34:05.836Z,13.74
2022-09-06T07:36:35.327Z,13.76
2022-09-06T07:39:03.587Z,13.79
2022-09-06T07:41:32.168Z,13.76
2022-09-06T07:44:00.415Z,13.74
2022-09-06T07:46:29.979Z,13.75
2022-09-06T07:48:58.297Z,13.75
2022-09-06T07:51:26.408Z,13.79
2022-09-06T07:54:13.315Z,13.82
2022-09-06T07:56:44.708Z,13.88
2022-09-06T07:59:12.907Z,13.93
2022-09-06T08:01:42.976Z,13.95
2022-09-06T08:04:14.084Z,13.96
2022-09-06T08:09:32.937Z,13.99
2022-09-06T08:12:06.604Z,13.98
2022-09-06T08:14:35.845Z,14.00
2022-09-06T08:17:05.607Z,13.94
2022-09-06T08:19:34.538Z,13.87
2022-09-06T08:22:02.949Z,13.85
2022-09-06T08:24:31.759Z,13.81
2022-09-06T08:26:59.918Z,13.79
2022-09-06T08:29:29.211Z,13.80
2022-09-06T08:31:57.559Z,13.85
2022-09-06T08:34:27.121Z,13.90
2022-09-06T08:36:55.237Z,13.96
2022-09-06T08:39:23.560Z,13.99
2022-09-06T08:41:57.308Z,14.01
2022-09-06T08:47:18.226Z,13.95
2022-09-06T08:49:49.709Z,13.92
2022-09-06T08:52:49.698Z,13.87
2022-09-06T08:55:38.119Z,13.84
2022-09-06T08:58:26.308Z,13.87
2022-09-06T09:00:58.758Z,13.86
2022-09-06T09:03:34.448Z,13.91
2022-09-06T09:06:06.387Z,13.98
2022-09-06T09:08:43.077Z,14.08
2022-09-06T09:11:16.659Z,14.12
2022-09-06T09:13:56.065Z,14.14
2022-09-06T09:16:25.070Z,14.26
2022-09-06T09:18:55.138Z,14.34
2022-09-06T09:21:30.489Z,14.49
2022-09-06T09:24:03.102Z,14.54
2022-09-06T09:26:38.005Z,14.64
2022-09-06T09:29:08.549Z,14.71
2022-09-06T09:31:39.676Z,14.66
2022-09-06T09:34:12.738Z,14.70
2022-09-06T09:39:36.858Z,14.64
2022-09-06T09:42:05.498Z,14.52
2022-09-06T09:44:34.276Z,14.43
2022-09-06T09:47:23.086Z,14.38
2022-09-06T09:49:51.287Z,14.41
2022-09-06T09:52:26.618Z,14.49
2022-09-06T09:54:59.297Z,14.58
2022-09-06T09:57:28.139Z,14.59
2022-09-06T10:00:01.467Z,14.66
2022-09-06T10:02:35.758Z,14.71
2022-09-06T10:05:06.419Z,14.78
2022-09-06T10:07:43.058Z,14.74
2022-09-06T10:10:15.319Z,14.71
2022-09-06T10:12:44.270Z,14.71
2022-09-06T10:15:32.806Z,14.74
2022-09-06T10:18:01.135Z,14.73
2022-09-06T10:20:37.457Z,14.71
2022-09-06T10:23:12.557Z,14.74
2022-09-06T10:25:48.947Z,14.75
2022-09-06T10:28:29.875Z,14.75
2022-09-06T10:31:13.995Z,14.67
2022-09-06T10:33:55.037Z,14.60
2022-09-06T10:36:29.778Z,14.53
2022-09-06T10:39:04.051Z,14.50
2022-09-06T10:41:47.996Z,14.45
2022-09-06T10:44:32.677Z,14.39
2022-09-06T10:47:10.064Z,14.35
2022-09-06T10:49:39.905Z,14.36
2022-09-06T10:52:11.697Z,14.33
2022-09-06T10:54:42.597Z,14.33
2022-09-06T11:00:12.950Z,14.32
2022-09-06T11:02:47.462Z,14.31
2022-09-06T11:05:38.391Z,14.35
2022-09-06T11:11:06.827Z,14.67
2022-09-06T11:13:35.067Z,14.90
2022-09-06T11:16:08.802Z,15.15
2022-09-06T11:18:42.545Z,15.26
2022-09-06T11:21:37.379Z,15.30
2022-09-06T11:24:13.186Z,15.41
2022-09-06T11:26:46.837Z,15.54
2022-09-06T11:29:24.096Z,15.81
2022-09-06T11:34:55.028Z,16.59
2022-09-06T11:37:27.999Z,17.18
2022-09-06T11:40:32.662Z,17.42
2022-09-06T11:43:40.446Z,17.31
2022-09-06T11:46:10.140Z,16.99
2022-09-06T11:49:01.695Z,16.85
2022-09-06T11:51:35.611Z,16.88
2022-09-06T11:54:21.797Z,16.85
2022-09-06T11:56:58.365Z,17.08
2022-09-06T11:59:35.351Z,17.20
2022-09-06T12:02:06.942Z,17.18
2022-09-06T12:05:12.122Z,17.13
2022-09-06T12:08:18.838Z,16.88
2022-09-06T12:10:51.047Z,17.07
2022-09-06T12:13:42.065Z,16.99
2022-09-06T12:16:12.277Z,16.91
2022-09-06T12:19:01.867Z,16.87
2022-09-06T12:21:52.178Z,16.86
2022-09-06T12:24:53.438Z,16.85
2022-09-06T12:27:23.631Z,16.81
2022-09-06T12:30:00.239Z,16.75
2022-09-06T12:32:37.151Z,16.60
2022-09-06T12:38:14.972Z,16.18
2022-09-06T12:40:48.722Z,15.93
2022-09-06T12:43:18.606Z,15.69
2022-09-06T12:45:48.798Z,15.44
2022-09-06T12:48:28.775Z,15.07
2022-09-06T12:51:05.116Z,14.73
2022-09-06T12:53:35.147Z,14.48
2022-09-06T12:56:06.474Z,14.39
2022-09-06T12:58:35.697Z,14.37
2022-09-06T13:01:12.402Z,14.38
2022-09-06T13:03:45.654Z,14.43
2022-09-06T13:06:26.032Z,14.44
2022-09-06T13:08:58.253Z,14.84
2022-09-06T13:11:34.419Z,15.36
2022-09-06T13:14:14.244Z,15.47
2022-09-06T13:16:46.025Z,16.09
2022-09-06T13:19:16.666Z,16.68
2022-09-06T13:21:47.486Z,17.07
2022-09-06T13:24:24.166Z,17.20
2022-09-06T13:26:52.927Z,17.10
2022-09-06T13:29:24.948Z,17.28
2022-09-06T13:31:54.437Z,17.28
2022-09-06T13:34:25.357Z,17.26
2022-09-06T13:37:00.608Z,17.44
2022-09-06T13:39:33.679Z,17.43
2022-09-06T13:42:04.178Z,17.27
2022-09-06T13:44:33.759Z,17.47
2022-09-06T13:47:01.967Z,17.53
2022-09-06T13:49:30.717Z,17.65
2022-09-06T13:52:02.701Z,17.75
2022-09-06T13:54:32.097Z,17.56
2022-09-06T13:57:01.678Z,17.64
2022-09-06T13:59:31.503Z,17.66
2022-09-06T14:02:03.327Z,17.43
2022-09-06T14:04:31.978Z,17.72
2022-09-06T14:07:01.627Z,17.88
2022-09-06T14:09:30.355Z,18.36
2022-09-06T14:11:58.547Z,18.64
2022-09-06T14:14:26.807Z,18.45
2022-09-06T14:16:55.059Z,18.35
2022-09-06T14:19:24.278Z,18.03
2022-09-06T14:21:52.469Z,17.55
2022-09-06T14:24:21.938Z,17.81
2022-09-06T14:26:50.160Z,18.14
2022-09-06T14:29:18.428Z,17.87
2022-09-06T14:31:48.352Z,17.85
2022-09-06T14:34:16.598Z,17.94
2022-09-06T14:36:44.765Z,17.98
2022-09-06T14:39:13.048Z,18.02
2022-09-06T14:41:42.427Z,18.04
2022-09-06T14:44:11.267Z,17.95
2022-09-06T14:46:39.478Z,17.89
2022-09-06T14:49:10.519Z,17.62
2022-09-06T14:51:39.903Z,17.29
2022-09-06T14:54:10.293Z,16.94
2022-09-06T14:56:39.998Z,16.84
2022-09-06T14:59:10.611Z,16.93
2022-09-06T15:01:41.093Z,16.96
2022-09-06T15:04:11.781Z,17.00
2022-09-06T15:06:44.835Z,16.86
2022-09-06T15:09:14.245Z,16.62
2022-09-06T15:11:45.114Z,16.70
2022-09-06T15:14:16.829Z,17.01
2022-09-06T15:16:46.138Z,17.32
2022-09-06T15:19:15.409Z,17.58
2022-09-06T15:22:02.037Z,17.74
2022-09-06T15:24:30.577Z,17.58
2022-09-06T15:26:59.068Z,17.31
2022-09-06T15:29:28.947Z,17.24
2022-09-06T15:31:57.385Z,17.15
2022-09-06T15:34:27.320Z,16.98
2022-09-06T15:36:56.680Z,16.81
2022-09-06T15:39:25.044Z,16.75
2022-09-06T15:41:53.245Z,16.89
2022-09-06T15:44:22.419Z,17.03
2022-09-06T15:46:53.873Z,17.13
2022-09-06T15:49:27.795Z,17.21
2022-09-06T15:51:57.342Z,17.18
2022-09-06T15:54:46.128Z,17.15
2022-09-06T15:57:16.361Z,16.93
2022-09-06T15:59:44.959Z,16.75
2022-09-06T16:02:15.100Z,16.62
2022-09-06T16:04:43.955Z,16.57
2022-09-06T16:07:12.327Z,16.52
2022-09-06T16:09:40.517Z,16.48
2022-09-06T16:12:09.180Z,16.46
2022-09-06T16:14:38.528Z,16.43
2022-09-06T16:17:07.026Z,16.43
2022-09-06T16:19:36.629Z,16.48
2022-09-06T16:22:05.388Z,16.56
2022-09-06T16:24:33.800Z,16.72
2022-09-06T16:27:02.267Z,16.76
2022-09-06T16:29:31.821Z,16.73
2022-09-06T16:32:00.727Z,16.65
2022-09-06T16:34:29.099Z,16.53
2022-09-06T16:36:58.677Z,16.41
2022-09-06T16:39:27.063Z,16.33
2022-09-06T16:41:55.410Z,16.33
2022-09-06T16:44:23.957Z,16.32
2022-09-06T16:46:53.638Z,16.34
2022-09-06T16:49:21.877Z,16.28
2022-09-06T16:51:51.379Z,16.18
2022-09-06T16:54:21.900Z,16.20
2022-09-06T16:56:50.148Z,16.26
2022-09-06T16:59:18.569Z,16.34
2022-09-06T17:01:47.487Z,16.35
2022-09-06T17:04:16.267Z,16.25
2022-09-06T17:07:03.176Z,16.20
2022-09-06T17:09:34.479Z,16.21
2022-09-06T17:12:03.787Z,16.11
2022-09-06T17:14:31.957Z,16.05
2022-09-06T17:17:05.086Z,16.14
2022-09-06T17:19:35.267Z,16.14
2022-09-06T17:22:03.597Z,16.05
2022-09-06T17:24:33.241Z,15.98
2022-09-06T17:27:01.555Z,15.94
2022-09-06T17:29:29.825Z,15.94
2022-09-06T17:31:59.216Z,15.92
2022-09-06T17:34:28.095Z,15.90
2022-09-06T17:36:56.297Z,15.90
2022-09-06T17:39:24.588Z,15.91
2022-09-06T17:41:54.766Z,15.87
2022-09-06T17:44:25.630Z,15.79
2022-09-06T17:50:01.132Z,15.73
2022-09-06T17:52:29.447Z,15.67
2022-09-06T17:54:57.647Z,15.56
2022-09-06T17:57:27.057Z,15.49
2022-09-06T17:59:55.259Z,15.41
2022-09-06T18:02:23.479Z,15.31
2022-09-06T18:04:51.819Z,15.24
2022-09-06T18:07:20.395Z,15.27
2022-09-06T18:09:48.597Z,15.25
2022-09-06T18:12:17.558Z,15.30
2022-09-06T18:14:47.627Z,15.21
2022-09-06T18:17:15.887Z,15.18
2022-09-06T18:19:44.828Z,15.10
2022-09-06T18:22:13.068Z,15.06
2022-09-06T18:24:41.345Z,15.01
2022-09-06T18:27:09.840Z,14.96
2022-09-06T18:29:38.077Z,14.90
2022-09-06T18:32:08.717Z,14.86
2022-09-06T18:34:38.168Z,14.82
2022-09-06T18:37:06.367Z,14.83
2022-09-06T18:39:34.704Z,14.79
2022-09-06T18:42:06.985Z,14.71
2022-09-06T18:44:36.346Z,14.65
2022-09-06T18:47:08.347Z,14.67
2022-09-06T18:49:40.540Z,14.64
2022-09-06T18:52:11.659Z,14.56
2022-09-06T18:54:39.906Z,14.58
2022-09-06T18:57:08.716Z,14.58
2022-09-06T18:59:36.816Z,14.53
2022-09-06T19:02:05.073Z,14.48
2022-09-06T19:04:34.539Z,14.45
2022-09-06T19:07:03.901Z,14.44
2022-09-06T19:09:32.099Z,14.39
2022-09-06T19:12:00.386Z,14.28
2022-09-06T19:14:29.071Z,14.21
2022-09-06T19:16:57.527Z,14.24
2022-09-06T19:19:26.027Z,14.16
2022-09-06T19:21:55.657Z,14.10
2022-09-06T19:24:24.726Z,14.02
2022-09-06T19:26:53.472Z,13.94
2022-09-06T19:29:21.893Z,13.92
2022-09-06T19:31:50.545Z,13.88
2022-09-06T19:34:18.877Z,13.86
2022-09-06T19:36:47.318Z,13.87
2022-09-06T19:39:17.766Z,13.83
2022-09-06T19:41:47.864Z,13.83
2022-09-06T19:44:17.598Z,13.86
2022-09-06T19:46:47.170Z,13.88
2022-09-06T19:49:17.378Z,13.83
2022-09-06T19:51:46.802Z,13.74
2022-09-06T19:54:17.237Z,13.66
2022-09-06T19:56:46.098Z,13.59
2022-09-06T19:59:15.797Z,13.56
2022-09-06T20:01:46.175Z,13.55
2022-09-06T20:04:15.415Z,13.51
2022-09-06T20:06:43.927Z,13.47
2022-09-06T20:09:12.780Z,13.46
2022-09-06T20:11:43.645Z,13.47
2022-09-06T20:14:13.343Z,13.56
2022-09-06T20:16:42.672Z,13.65
2022-09-06T20:19:14.603Z,13.71
2022-09-06T20:21:44.366Z,13.65
2022-09-06T20:24:12.797Z,13.55
2022-09-06T20:26:42.878Z,13.48
2022-09-06T20:29:11.226Z,13.41
2022-09-06T20:31:40.350Z,13.35
2022-09-06T20:34:08.641Z,13.29
2022-09-06T20:36:37.227Z,13.23
2022-09-06T20:39:05.937Z,13.16
2022-09-06T20:41:34.829Z,13.06
2022-09-06T20:44:05.018Z,12.99
2022-09-06T20:46:36.176Z,12.89
2022-09-06T20:49:06.669Z,12.78
2022-09-06T20:51:38.538Z,12.72
2022-09-06T20:54:07.391Z,12.68
2022-09-06T20:56:37.847Z,12.59
2022-09-06T20:59:11.326Z,12.53
2022-09-06T21:01:42.491Z,12.50
2022-09-06T21:04:12.028Z,12.48
2022-09-06T21:06:41.490Z,12.46
2022-09-06T21:09:11.626Z,12.39
2022-09-06T21:11:40.106Z,12.34
2022-09-06T21:14:10.497Z,12.31
2022-09-06T21:16:40.524Z,12.26
2022-09-06T21:19:10.664Z,12.25
2022-09-06T21:21:39.847Z,12.23
2022-09-06T21:24:09.478Z,12.22
2022-09-06T21:26:38.153Z,12.17
2022-09-06T21:29:06.418Z,12.16
2022-09-06T21:31:37.902Z,12.09
2022-09-06T21:34:08.509Z,12.05
2022-09-06T21:36:39.810Z,12.04
2022-09-06T21:39:10.569Z,12.03
2022-09-06T21:41:40.126Z,12.02
2022-09-06T21:44:09.198Z,12.02
2022-09-06T21:46:40.365Z,12.00
2022-09-06T21:49:10.470Z,11.98
2022-09-06T21:51:39.710Z,12.00
2022-09-06T21:54:07.900Z,12.03
2022-09-06T21:56:38.856Z,12.07
2022-09-06T21:59:08.458Z,12.07
2022-09-06T22:01:39.462Z,12.03
2022-09-06T22:04:08.307Z,11.99
2022-09-06T22:06:37.809Z,11.90
2022-09-06T22:09:10.567Z,11.83
2022-09-06T22:11:40.470Z,11.77
2022-09-06T22:14:10.985Z,11.72
2022-09-06T22:16:41.936Z,11.70
2022-09-06T22:19:10.939Z,11.69
2022-09-06T22:21:39.748Z,11.64
2022-09-06T22:24:09.728Z,11.61
2022-09-06T22:26:39.854Z,11.57
2022-09-06T22:29:09.948Z,11.52
2022-09-06T22:31:38.163Z,11.51
2022-09-06T22:34:08.578Z,11.51
2022-09-06T22:36:37.237Z,11.52
2022-09-06T22:39:05.867Z,11.51
2022-09-06T22:41:35.157Z,11.52
2022-09-06T22:44:04.859Z,11.59
2022-09-06T22:46:33.601Z,11.63
2022-09-06T22:49:02.477Z,11.62
2022-09-06T22:51:32.179Z,11.65
2022-09-06T22:54:00.390Z,11.65
2022-09-06T22:56:28.747Z,11.65
2022-09-06T22:58:57.076Z,11.65
2022-09-06T23:01:25.987Z,11.64
2022-09-06T23:03:54.396Z,11.61
2022-09-06T23:06:22.847Z,11.60
2022-09-06T23:08:52.656Z,11.62
2022-09-06T23:11:21.007Z,11.63
2022-09-06T23:13:49.267Z,11.63
2022-09-06T23:16:19.536Z,11.58
2022-09-06T23:18:48.810Z,11.56
2022-09-06T23:21:19.570Z,11.51
2022-09-06T23:23:49.178Z,11.49
2022-09-06T23:26:21.495Z,11.48
2022-09-06T23:28:56.403Z,11.46
2022-09-06T23:31:25.996Z,11.44
2022-09-06T23:33:55.055Z,11.44
2022-09-06T23:36:23.545Z,11.45
2022-09-06T23:38:52.276Z,11.49
2022-09-06T23:41:21.977Z,11.50
2022-09-06T23:43:50.301Z,11.51
2022-09-06T23:46:18.578Z,11.45
2022-09-06T23:48:47.408Z,11.45
2022-09-06T23:51:15.875Z,11.50
2022-09-06T23:53:43.953Z,11.51
2022-09-06T23:56:12.861Z,11.52
2022-09-06T23:58:42.407Z,11.48
